Himawari 2 — JG5636 — position and weather

sailwx.info

Track history (hours):
 
Tides and Currents Weather Stations Pressure Air Temp Water Temp Dewpoint Dewpoint Depression Visibility Wind Speed Wind Dir Waves Ship Positions

Himawari 2

Last reported at 2015-Jun-30 20:30 UTC. Time now 2015-Jul-02 23:11 UTC.
Position N 36°16' E 141°02'.

Length 161 m; draft 6.5 m.

Type: Cargo ship. MMSI: 431100957.

Date/timePositionNaut miles runAvg speedWind from/ knotsBaromVisibWave heightAir tempDewpointWater temp
2015-Jun-30 20:30N 36°16' E 141°02'2118.4
2015-Jun-30 19:22N 35°55' E 140°60'1518.0
2015-Jun-30 18:33N 35°41' E 140°57'1818.3
2015-Jun-30 17:33N 35°26' E 140°45'1918.8
2015-Jun-30 16:34N 35°11' E 140°31'1918.7
2015-Jun-30 15:34N 34°59' E 140°13'1918.8
2015-Jun-30 14:33N 34°50' E 139°52'1615.8
2015-Jun-30 13:33N 35°04' E 139°43'1414.2
2015-Jun-30 12:34N 35°18' E 139°44'1514.8
2015-Jun-30 11:34N 35°32' E 139°51'5 4.8
2015-Jun-30 10:32N 35°36' E 139°48'0 0.0
2015-Jun-30 09:32N 35°36' E 139°48'0 0.0
2015-Jun-30 08:29N 35°36' E 139°48'0 0.0
2015-Jun-30 07:32N 35°36' E 139°48'0 0.0
2015-Jun-30 06:32N 35°36' E 139°48'0 0.0
2015-Jun-30 05:32N 35°36' E 139°48'0 0.0
2015-Jun-30 04:32N 35°36' E 139°48'0 0.0
2015-Jun-30 03:32N 35°36' E 139°48'0 0.0
2015-Jun-30 02:32N 35°36' E 139°48'0 0.0
2015-Jun-30 01:32N 35°36' E 139°48'2 2.2
2015-Jun-30 00:33N 35°34' E 139°49'1212.1
2015-Jun-29 23:34N 35°22' E 139°46'1212.1
2015-Jun-29 22:33N 35°10' E 139°47'1919.0
2015-Jun-29 21:32N 34°56' E 139°31'23219.3
2015-Jun-29 09:33N 33°60' E 134°59'2222.3
2015-Jun-29 08:33N 34°22' E 135°01'1919.4
2015-Jun-29 07:33N 34°35' E 135°18'7 6.5
2015-Jun-29 06:30N 34°40' E 135°24'0 0.0
2015-Jun-29 05:18N 34°40' E 135°24'0 0.0
2015-Jun-29 04:30N 34°40' E 135°24'0 0.0
2015-Jun-29 03:24N 34°40' E 135°24'0 0.0
2015-Jun-29 02:24N 34°40' E 135°24'0 0.0
2015-Jun-29 01:30N 34°40' E 135°24'0 0.0
2015-Jun-29 00:12N 34°40' E 135°24'0 0.0
2015-Jun-28 23:30N 34°40' E 135°24'0 0.0
2015-Jun-28 22:30N 34°40' E 135°24'0 0.0
2015-Jun-28 21:30N 34°40' E 135°24'0 0.0
2015-Jun-28 20:30N 34°40' E 135°24'0 0.0
2015-Jun-28 19:30N 34°40' E 135°24'0 0.0
2015-Jun-28 18:30N 34°40' E 135°24'0 0.0
2015-Jun-28 17:30N 34°40' E 135°24'0 0.0
2015-Jun-28 16:30N 34°40' E 135°24'0 0.0
2015-Jun-28 15:30N 34°40' E 135°24'0 0.0
2015-Jun-28 14:30N 34°40' E 135°24'0 0.0
2015-Jun-28 13:24N 34°40' E 135°24'0 0.0
2015-Jun-28 12:30N 34°40' E 135°24'0 0.0
2015-Jun-28 11:30N 34°40' E 135°24'0 0.0
2015-Jun-28 10:30N 34°40' E 135°24'0 0.0
2015-Jun-28 09:30N 34°40' E 135°24'0 0.0
2015-Jun-28 08:30N 34°40' E 135°24'0 0.0
2015-Jun-28 07:30N 34°40' E 135°24'0 0.0
2015-Jun-28 06:30N 34°40' E 135°24'0 0.0
2015-Jun-28 05:33N 34°40' E 135°24'8 7.8
2015-Jun-28 04:33N 34°34' E 135°18'2020.1
2015-Jun-28 03:33N 34°19' E 135°01'1918.7
2015-Jun-28 02:33N 34°00' E 134°60'23115.4
2015-Jun-27 11:33N 34°58' E 139°31'1817.8
2015-Jun-27 10:33N 35°12' E 139°46'1110.9
2015-Jun-27 09:34N 35°22' E 139°42'1313.5
2015-Jun-27 08:33N 35°35' E 139°47'1 1.2
2015-Jun-27 07:27N 35°36' E 139°48'0 0.0
2015-Jun-27 06:33N 35°36' E 139°48'0 0.0
2015-Jun-27 05:30N 35°36' E 139°48'0 0.0
2015-Jun-27 04:33N 35°36' E 139°48'0 0.0
2015-Jun-27 03:30N 35°36' E 139°48'0 0.0
2015-Jun-27 02:33N 35°36' E 139°48'2 1.7
2015-Jun-27 01:33N 35°35' E 139°48'1313.4
2015-Jun-27 00:33N 35°22' E 139°45'1212.0
2015-Jun-26 23:33N 35°10' E 139°47'1915.8
2015-Jun-26 22:23N 34°53' E 139°56'1923.3
2015-Jun-26 21:33N 35°01' E 140°17'2221.8
2015-Jun-26 20:32N 35°16' E 140°37'2222.4
2015-Jun-26 19:33N 35°34' E 140°53'2322.4
2015-Jun-26 18:31N 35°56' E 140°60'  
2015-Jun-23 20:21N 35°57' E 140°59'2618.1
2015-Jun-23 18:55N 35°32' E 140°51'305 8.4
2015-Jun-22 06:33N 33°57' E 134°58'2222.2
2015-Jun-22 05:33N 34°19' E 134°58'2120.8
2015-Jun-22 04:33N 34°34' E 135°17'9 8.4
2015-Jun-22 03:32N 34°40' E 135°24'0 0.0
2015-Jun-22 02:32N 34°40' E 135°24'0 0.0
2015-Jun-22 01:14N 34°40' E 135°24'0 0.0
2015-Jun-22 00:32N 34°40' E 135°24'0 0.0
2015-Jun-21 23:14N 34°40' E 135°24'0 0.0
2015-Jun-21 22:32N 34°40' E 135°24'0 0.0
2015-Jun-21 21:32N 34°40' E 135°24'0 0.0
2015-Jun-21 20:32N 34°40' E 135°24'0 0.0
2015-Jun-21 19:32N 34°40' E 135°24'0 0.0
2015-Jun-21 18:32N 34°40' E 135°24'0 0.0
2015-Jun-21 17:32N 34°40' E 135°24'0 0.0
2015-Jun-21 16:26N 34°40' E 135°24'0 0.0
2015-Jun-21 15:32N 34°40' E 135°24'0 0.0
2015-Jun-21 14:32N 34°40' E 135°24'0 0.0
2015-Jun-21 13:26N 34°40' E 135°24'0 0.0
2015-Jun-21 12:32N 34°40' E 135°24'0 0.0
2015-Jun-21 11:32N 34°40' E 135°24'0 0.0
2015-Jun-21 10:26N 34°40' E 135°24'0 0.0
2015-Jun-21 09:32N 34°40' E 135°24'0 0.0
2015-Jun-21 08:32N 34°40' E 135°24'0 0.0
2015-Jun-21 07:32N 34°40' E 135°24'4 4.6
2015-Jun-21 06:33N 34°36' E 135°20'2120.7
2015-Jun-21 05:33N 34°21' E 135°03'2019.7
2015-Jun-21 04:33N 34°02' E 135°01'5 4.4
2015-Jun-21 03:19N 33°56' E 135°02'7 9.4
2015-Jun-21 02:33N 33°56' E 134°54'  
Track history (hours):
 
Tides and Currents Weather Stations Pressure Air Temp Water Temp Dewpoint Dewpoint Depression Visibility Wind Speed Wind Dir Waves Ship Positions

Himawari 2

Last reported at 2015-Jun-30 20:30 UTC. Time now 2015-Jul-02 23:11 UTC.
Position N 36°16' E 141°02'.

Length 161 m; draft 6.5 m.

Type: Cargo ship. MMSI: 431100957.

Date/timePositionNaut miles runAvg speedWind from/ knotsBaromVisibWave heightAir tempDewpointWater temp
2015-Jun-30 20:30N 36°16' E 141°02'2118.4
2015-Jun-30 19:22N 35°55' E 140°60'1518.0
2015-Jun-30 18:33N 35°41' E 140°57'1818.3
2015-Jun-30 17:33N 35°26' E 140°45'1918.8
2015-Jun-30 16:34N 35°11' E 140°31'1918.7
2015-Jun-30 15:34N 34°59' E 140°13'1918.8
2015-Jun-30 14:33N 34°50' E 139°52'1615.8
2015-Jun-30 13:33N 35°04' E 139°43'1414.2
2015-Jun-30 12:34N 35°18' E 139°44'1514.8
2015-Jun-30 11:34N 35°32' E 139°51'5 4.8
2015-Jun-30 10:32N 35°36' E 139°48'0 0.0
2015-Jun-30 09:32N 35°36' E 139°48'0 0.0
2015-Jun-30 08:29N 35°36' E 139°48'0 0.0
2015-Jun-30 07:32N 35°36' E 139°48'0 0.0
2015-Jun-30 06:32N 35°36' E 139°48'0 0.0
2015-Jun-30 05:32N 35°36' E 139°48'0 0.0
2015-Jun-30 04:32N 35°36' E 139°48'0 0.0
2015-Jun-30 03:32N 35°36' E 139°48'0 0.0
2015-Jun-30 02:32N 35°36' E 139°48'0 0.0
2015-Jun-30 01:32N 35°36' E 139°48'2 2.2
2015-Jun-30 00:33N 35°34' E 139°49'1212.1
2015-Jun-29 23:34N 35°22' E 139°46'1212.1
2015-Jun-29 22:33N 35°10' E 139°47'1919.0
2015-Jun-29 21:32N 34°56' E 139°31'23219.3
2015-Jun-29 09:33N 33°60' E 134°59'2222.3
2015-Jun-29 08:33N 34°22' E 135°01'1919.4
2015-Jun-29 07:33N 34°35' E 135°18'7 6.5
2015-Jun-29 06:30N 34°40' E 135°24'0 0.0
2015-Jun-29 05:18N 34°40' E 135°24'0 0.0
2015-Jun-29 04:30N 34°40' E 135°24'0 0.0
2015-Jun-29 03:24N 34°40' E 135°24'0 0.0
2015-Jun-29 02:24N 34°40' E 135°24'0 0.0
2015-Jun-29 01:30N 34°40' E 135°24'0 0.0
2015-Jun-29 00:12N 34°40' E 135°24'0 0.0
2015-Jun-28 23:30N 34°40' E 135°24'0 0.0
2015-Jun-28 22:30N 34°40' E 135°24'0 0.0
2015-Jun-28 21:30N 34°40' E 135°24'0 0.0
2015-Jun-28 20:30N 34°40' E 135°24'0 0.0
2015-Jun-28 19:30N 34°40' E 135°24'0 0.0
2015-Jun-28 18:30N 34°40' E 135°24'0 0.0
2015-Jun-28 17:30N 34°40' E 135°24'0 0.0
2015-Jun-28 16:30N 34°40' E 135°24'0 0.0
2015-Jun-28 15:30N 34°40' E 135°24'0 0.0
2015-Jun-28 14:30N 34°40' E 135°24'0 0.0
2015-Jun-28 13:24N 34°40' E 135°24'0 0.0
2015-Jun-28 12:30N 34°40' E 135°24'0 0.0
2015-Jun-28 11:30N 34°40' E 135°24'0 0.0
2015-Jun-28 10:30N 34°40' E 135°24'0 0.0
2015-Jun-28 09:30N 34°40' E 135°24'0 0.0
2015-Jun-28 08:30N 34°40' E 135°24'0 0.0
2015-Jun-28 07:30N 34°40' E 135°24'0 0.0
2015-Jun-28 06:30N 34°40' E 135°24'0 0.0
2015-Jun-28 05:33N 34°40' E 135°24'8 7.8
2015-Jun-28 04:33N 34°34' E 135°18'2020.1
2015-Jun-28 03:33N 34°19' E 135°01'1918.7
2015-Jun-28 02:33N 34°00' E 134°60'23115.4
2015-Jun-27 11:33N 34°58' E 139°31'1817.8
2015-Jun-27 10:33N 35°12' E 139°46'1110.9
2015-Jun-27 09:34N 35°22' E 139°42'1313.5
2015-Jun-27 08:33N 35°35' E 139°47'1 1.2
2015-Jun-27 07:27N 35°36' E 139°48'0 0.0
2015-Jun-27 06:33N 35°36' E 139°48'0 0.0
2015-Jun-27 05:30N 35°36' E 139°48'0 0.0
2015-Jun-27 04:33N 35°36' E 139°48'0 0.0
2015-Jun-27 03:30N 35°36' E 139°48'0 0.0
2015-Jun-27 02:33N 35°36' E 139°48'2 1.7
2015-Jun-27 01:33N 35°35' E 139°48'1313.4
2015-Jun-27 00:33N 35°22' E 139°45'1212.0
2015-Jun-26 23:33N 35°10' E 139°47'1915.8
2015-Jun-26 22:23N 34°53' E 139°56'1923.3
2015-Jun-26 21:33N 35°01' E 140°17'2221.8
2015-Jun-26 20:32N 35°16' E 140°37'2222.4
2015-Jun-26 19:33N 35°34' E 140°53'2322.4
2015-Jun-26 18:31N 35°56' E 140°60'  
2015-Jun-23 20:21N 35°57' E 140°59'2618.1
2015-Jun-23 18:55N 35°32' E 140°51'305 8.4
2015-Jun-22 06:33N 33°57' E 134°58'2222.2
2015-Jun-22 05:33N 34°19' E 134°58'2120.8
2015-Jun-22 04:33N 34°34' E 135°17'9 8.4
2015-Jun-22 03:32N 34°40' E 135°24'0 0.0
2015-Jun-22 02:32N 34°40' E 135°24'0 0.0
2015-Jun-22 01:14N 34°40' E 135°24'0 0.0
2015-Jun-22 00:32N 34°40' E 135°24'0 0.0
2015-Jun-21 23:14N 34°40' E 135°24'0 0.0
2015-Jun-21 22:32N 34°40' E 135°24'0 0.0
2015-Jun-21 21:32N 34°40' E 135°24'0 0.0
2015-Jun-21 20:32N 34°40' E 135°24'0 0.0
2015-Jun-21 19:32N 34°40' E 135°24'0 0.0
2015-Jun-21 18:32N 34°40' E 135°24'0 0.0
2015-Jun-21 17:32N 34°40' E 135°24'0 0.0
2015-Jun-21 16:26N 34°40' E 135°24'0 0.0
2015-Jun-21 15:32N 34°40' E 135°24'0 0.0
2015-Jun-21 14:32N 34°40' E 135°24'0 0.0
2015-Jun-21 13:26N 34°40' E 135°24'0 0.0
2015-Jun-21 12:32N 34°40' E 135°24'0 0.0
2015-Jun-21 11:32N 34°40' E 135°24'0 0.0
2015-Jun-21 10:26N 34°40' E 135°24'0 0.0
2015-Jun-21 09:32N 34°40' E 135°24'0 0.0
2015-Jun-21 08:32N 34°40' E 135°24'0 0.0
2015-Jun-21 07:32N 34°40' E 135°24'4 4.6
2015-Jun-21 06:33N 34°36' E 135°20'2120.7
2015-Jun-21 05:33N 34°21' E 135°03'2019.7
2015-Jun-21 04:33N 34°02' E 135°01'5 4.4
2015-Jun-21 03:19N 33°56' E 135°02'7 9.4
2015-Jun-21 02:33N 33°56' E 134°54'  

Dump ship's entire track history